Cosco Nagoya — 3ESJ8 — position and weather

sailwx.info

Track history (hours):
 
Tides and Currents Weather Stations Pressure Air Temp Water Temp Dewpoint Dewpoint Depression Visibility Wind Speed Wind Dir Waves Ship Positions

Cosco Nagoya

Last reported at 2014-Sep-30 17:34 UTC. Time now 2014-Sep-30 17:54 UTC.
Position N 53°51' E 008°00'.

Length 260 m; draft 10.9 m.

Type: Cargo ship. MMSI: 370320000.

Date/timePositionNaut miles runAvg speedWind from/ knotsBaromVisibWave heightAir tempDewpointWater temp
2014-Sep-30 17:34N 53°51' E 008°00'1211.7
2014-Sep-30 16:33N 53°53' E 007°41'9 9.0
2014-Sep-30 15:32N 53°53' E 007°25'2713.3
2014-Sep-30 13:30N 53°48' E 006°40'1413.9
2014-Sep-30 12:30N 53°45' E 006°17'1314.1
2014-Sep-30 11:34N 53°40' E 005°56'1414.1
2014-Sep-30 10:34N 53°35' E 005°34'1414.3
2014-Sep-30 09:34N 53°30' E 005°12'1414.4
2014-Sep-30 08:34N 53°26' E 004°48'1414.2
2014-Sep-30 07:34N 53°14' E 004°36'1714.7
2014-Sep-30 06:26N 53°00' E 004°21'1416.3
2014-Sep-30 05:33N 52°47' E 004°11'1817.7
2014-Sep-30 04:34N 52°34' E 003°52'1717.2
2014-Sep-30 03:33N 52°22' E 003°31'1716.4
2014-Sep-30 02:33N 52°06' E 003°26'1615.8
2014-Sep-30 01:33N 51°51' E 003°19'1111.3
2014-Sep-30 00:33N 51°40' E 003°13'1514.7
2014-Sep-29 23:33N 51°27' E 003°01'1313.5
2014-Sep-29 22:33N 51°24' E 003°22'1414.4
2014-Sep-29 21:33N 51°22' E 003°45'1211.6
2014-Sep-29 20:34N 51°23' E 004°03'8 8.5
2014-Sep-29 19:34N 51°20' E 004°17'0 0.0
2014-Sep-29 18:33N 51°20' E 004°17'0 0.0
2014-Sep-29 17:33N 51°20' E 004°17'0 0.0
2014-Sep-29 16:33N 51°20' E 004°17'0 0.0
2014-Sep-29 15:34N 51°20' E 004°17'0 0.0
2014-Sep-29 14:33N 51°20' E 004°17'0 0.0
2014-Sep-29 13:33N 51°20' E 004°17'0 0.0
2014-Sep-29 12:33N 51°20' E 004°17'0 0.0
2014-Sep-29 11:33N 51°20' E 004°17'0 0.0
2014-Sep-29 10:33N 51°20' E 004°17'0 0.0
2014-Sep-29 09:33N 51°20' E 004°17'0 0.0
2014-Sep-29 08:33N 51°20' E 004°17'0 0.0
2014-Sep-29 07:33N 51°20' E 004°17'0 0.0
2014-Sep-29 06:34N 51°20' E 004°17'0 0.0
2014-Sep-29 05:33N 51°20' E 004°17'0 0.0
2014-Sep-29 04:33N 51°20' E 004°17'0 0.0
2014-Sep-29 03:33N 51°20' E 004°17'0 0.0
2014-Sep-29 02:33N 51°20' E 004°17'2 1.7
2014-Sep-29 01:33N 51°21' E 004°14'1111.0
2014-Sep-29 00:33N 51°25' E 003°58'1010.2
2014-Sep-28 23:33N 51°26' E 003°42'1413.8
2014-Sep-28 22:33N 51°24' E 003°19'2117.5
2014-Sep-28 21:22N 51°22' E 002°46'8 9.8
2014-Sep-28 20:33N 51°22' E 002°34'1414.0
2014-Sep-28 19:33N 51°16' E 002°13'1818.3
2014-Sep-28 18:34N 51°07' E 001°48'1818.5
2014-Sep-28 17:34N 50°54' E 001°27'1918.6
2014-Sep-28 16:33N 50°37' E 001°14'1918.6
2014-Sep-28 15:34N 50°28' E 000°49'1918.8
2014-Sep-28 14:34N 50°23' E 000°21'1918.6
2014-Sep-28 13:34N 50°17' W 000°07'1918.6
2014-Sep-28 12:34N 50°12' W 000°35'1918.5
2014-Sep-28 11:33N 50°07' W 001°03'1918.6
2014-Sep-28 10:33N 50°02' W 001°31'1919.4
2014-Sep-28 09:33N 49°58' W 002°01'2020.1
2014-Sep-28 08:33N 49°53' W 002°31'19519.4
2014-Sep-27 22:30N 49°41' W 007°33'1819.0
2014-Sep-27 21:32N 49°42' W 008°01'2419.3
2014-Sep-27 20:18N 49°44' W 008°38'1519.7
2014-Sep-27 19:33N 49°45' W 009°00'  
Track history (hours):
 
Tides and Currents Weather Stations Pressure Air Temp Water Temp Dewpoint Dewpoint Depression Visibility Wind Speed Wind Dir Waves Ship Positions

Cosco Nagoya

Last reported at 2014-Sep-30 17:34 UTC. Time now 2014-Sep-30 17:54 UTC.
Position N 53°51' E 008°00'.

Length 260 m; draft 10.9 m.

Type: Cargo ship. MMSI: 370320000.

Date/timePositionNaut miles runAvg speedWind from/ knotsBaromVisibWave heightAir tempDewpointWater temp
2014-Sep-30 17:34N 53°51' E 008°00'1211.7
2014-Sep-30 16:33N 53°53' E 007°41'9 9.0
2014-Sep-30 15:32N 53°53' E 007°25'2713.3
2014-Sep-30 13:30N 53°48' E 006°40'1413.9
2014-Sep-30 12:30N 53°45' E 006°17'1314.1
2014-Sep-30 11:34N 53°40' E 005°56'1414.1
2014-Sep-30 10:34N 53°35' E 005°34'1414.3
2014-Sep-30 09:34N 53°30' E 005°12'1414.4
2014-Sep-30 08:34N 53°26' E 004°48'1414.2
2014-Sep-30 07:34N 53°14' E 004°36'1714.7
2014-Sep-30 06:26N 53°00' E 004°21'1416.3
2014-Sep-30 05:33N 52°47' E 004°11'1817.7
2014-Sep-30 04:34N 52°34' E 003°52'1717.2
2014-Sep-30 03:33N 52°22' E 003°31'1716.4
2014-Sep-30 02:33N 52°06' E 003°26'1615.8
2014-Sep-30 01:33N 51°51' E 003°19'1111.3
2014-Sep-30 00:33N 51°40' E 003°13'1514.7
2014-Sep-29 23:33N 51°27' E 003°01'1313.5
2014-Sep-29 22:33N 51°24' E 003°22'1414.4
2014-Sep-29 21:33N 51°22' E 003°45'1211.6
2014-Sep-29 20:34N 51°23' E 004°03'8 8.5
2014-Sep-29 19:34N 51°20' E 004°17'0 0.0
2014-Sep-29 18:33N 51°20' E 004°17'0 0.0
2014-Sep-29 17:33N 51°20' E 004°17'0 0.0
2014-Sep-29 16:33N 51°20' E 004°17'0 0.0
2014-Sep-29 15:34N 51°20' E 004°17'0 0.0
2014-Sep-29 14:33N 51°20' E 004°17'0 0.0
2014-Sep-29 13:33N 51°20' E 004°17'0 0.0
2014-Sep-29 12:33N 51°20' E 004°17'0 0.0
2014-Sep-29 11:33N 51°20' E 004°17'0 0.0
2014-Sep-29 10:33N 51°20' E 004°17'0 0.0
2014-Sep-29 09:33N 51°20' E 004°17'0 0.0
2014-Sep-29 08:33N 51°20' E 004°17'0 0.0
2014-Sep-29 07:33N 51°20' E 004°17'0 0.0
2014-Sep-29 06:34N 51°20' E 004°17'0 0.0
2014-Sep-29 05:33N 51°20' E 004°17'0 0.0
2014-Sep-29 04:33N 51°20' E 004°17'0 0.0
2014-Sep-29 03:33N 51°20' E 004°17'0 0.0
2014-Sep-29 02:33N 51°20' E 004°17'2 1.7
2014-Sep-29 01:33N 51°21' E 004°14'1111.0
2014-Sep-29 00:33N 51°25' E 003°58'1010.2
2014-Sep-28 23:33N 51°26' E 003°42'1413.8
2014-Sep-28 22:33N 51°24' E 003°19'2117.5
2014-Sep-28 21:22N 51°22' E 002°46'8 9.8
2014-Sep-28 20:33N 51°22' E 002°34'1414.0
2014-Sep-28 19:33N 51°16' E 002°13'1818.3
2014-Sep-28 18:34N 51°07' E 001°48'1818.5
2014-Sep-28 17:34N 50°54' E 001°27'1918.6
2014-Sep-28 16:33N 50°37' E 001°14'1918.6
2014-Sep-28 15:34N 50°28' E 000°49'1918.8
2014-Sep-28 14:34N 50°23' E 000°21'1918.6
2014-Sep-28 13:34N 50°17' W 000°07'1918.6
2014-Sep-28 12:34N 50°12' W 000°35'1918.5
2014-Sep-28 11:33N 50°07' W 001°03'1918.6
2014-Sep-28 10:33N 50°02' W 001°31'1919.4
2014-Sep-28 09:33N 49°58' W 002°01'2020.1
2014-Sep-28 08:33N 49°53' W 002°31'19519.4
2014-Sep-27 22:30N 49°41' W 007°33'1819.0
2014-Sep-27 21:32N 49°42' W 008°01'2419.3
2014-Sep-27 20:18N 49°44' W 008°38'1519.7
2014-Sep-27 19:33N 49°45' W 009°00'  

Dump ship's entire track history